createdAt,value
2023-01-07T00:01:04.672Z,37.26
2023-01-07T00:03:31.092Z,37.30
2023-01-07T00:05:57.441Z,37.30
2023-01-07T00:08:23.821Z,37.33
2023-01-07T00:10:50.170Z,37.34
2023-01-07T00:13:16.549Z,37.41
2023-01-07T00:15:42.910Z,37.46
2023-01-07T00:18:09.308Z,37.41
2023-01-07T00:20:35.648Z,37.42
2023-01-07T00:23:02.045Z,37.46
2023-01-07T00:25:28.391Z,37.48
2023-01-07T00:27:54.776Z,37.54
2023-01-07T00:30:21.124Z,37.52
2023-01-07T00:32:47.509Z,37.55
2023-01-07T00:35:13.867Z,37.53
2023-01-07T00:37:40.259Z,37.57
2023-01-07T00:40:06.599Z,37.57
2023-01-07T00:42:32.983Z,37.60
2023-01-07T00:44:59.330Z,37.60
2023-01-07T00:47:25.731Z,37.60
2023-01-07T00:49:52.085Z,37.60
2023-01-07T00:52:18.461Z,37.63
2023-01-07T00:54:44.800Z,37.66
2023-01-07T00:57:11.193Z,37.72
2023-01-07T00:59:37.819Z,37.70
2023-01-07T01:02:04.296Z,37.72
2023-01-07T01:04:30.593Z,37.75
2023-01-07T01:06:56.983Z,37.74
2023-01-07T01:09:23.334Z,37.73
2023-01-07T01:11:49.731Z,37.74
2023-01-07T01:14:16.073Z,37.74
2023-01-07T01:16:42.558Z,37.81
2023-01-07T01:19:08.877Z,37.80
2023-01-07T01:21:35.220Z,37.81
2023-01-07T01:24:01.569Z,37.80
2023-01-07T01:26:27.949Z,37.89
2023-01-07T01:28:54.298Z,37.96
2023-01-07T01:31:20.699Z,37.94
2023-01-07T01:33:47.019Z,37.91
2023-01-07T01:36:13.434Z,37.93
2023-01-07T01:38:39.761Z,37.97
2023-01-07T01:41:06.154Z,37.96
2023-01-07T01:43:32.493Z,37.99
2023-01-07T01:45:58.905Z,38.07
2023-01-07T01:48:25.251Z,38.07
2023-01-07T01:50:51.669Z,38.03
2023-01-07T01:53:18.003Z,38.02
2023-01-07T01:55:44.405Z,38.03
2023-01-07T01:58:10.735Z,38.05
2023-01-07T02:00:37.148Z,38.00
2023-01-07T02:03:03.470Z,37.95
2023-01-07T02:05:29.855Z,37.95
2023-01-07T02:07:56.203Z,37.95
2023-01-07T02:10:22.616Z,37.92
2023-01-07T02:12:48.955Z,37.90
2023-01-07T02:15:15.359Z,37.90
2023-01-07T02:17:41.690Z,37.96
2023-01-07T02:20:08.083Z,37.98
2023-01-07T02:22:34.427Z,37.99
2023-01-07T02:25:00.822Z,37.97
2023-01-07T02:27:27.157Z,38.01
2023-01-07T02:29:53.549Z,38.03
2023-01-07T02:32:19.888Z,38.06
2023-01-07T02:34:46.293Z,38.03
2023-01-07T02:37:12.625Z,38.04
2023-01-07T02:39:39.037Z,38.05
2023-01-07T02:42:05.426Z,38.03
2023-01-07T02:44:31.774Z,38.04
2023-01-07T02:46:58.112Z,38.06
2023-01-07T02:49:24.504Z,38.07
2023-01-07T02:51:50.853Z,38.12
2023-01-07T02:54:17.239Z,38.15
2023-01-07T02:56:43.577Z,38.10
2023-01-07T02:59:10.042Z,38.08
2023-01-07T03:01:36.475Z,38.08
2023-01-07T03:04:02.822Z,38.12
2023-01-07T03:06:29.125Z,38.13
2023-01-07T03:08:55.512Z,38.14
2023-01-07T03:11:21.845Z,38.19
2023-01-07T03:13:49.449Z,38.23
2023-01-07T03:16:14.624Z,38.21
2023-01-07T03:18:40.971Z,38.19
2023-01-07T03:21:07.313Z,38.17
2023-01-07T03:23:33.704Z,38.18
2023-01-07T03:26:00.039Z,38.19
2023-01-07T03:28:26.434Z,38.22
2023-01-07T03:30:52.777Z,38.22
2023-01-07T03:33:19.162Z,38.23
2023-01-07T03:35:45.514Z,38.25
2023-01-07T03:38:11.903Z,38.28
2023-01-07T03:40:38.249Z,38.24
2023-01-07T03:43:04.639Z,38.24
2023-01-07T03:45:31.039Z,38.25
2023-01-07T03:47:57.441Z,38.26
2023-01-07T03:50:23.787Z,38.26
2023-01-07T03:52:50.219Z,38.29
2023-01-07T03:55:16.564Z,38.31
2023-01-07T03:57:42.952Z,38.34
2023-01-07T04:00:09.318Z,38.35
2023-01-07T04:02:35.694Z,38.40
2023-01-07T04:05:02.057Z,38.40
2023-01-07T04:07:28.454Z,38.43
2023-01-07T04:09:54.802Z,38.41
2023-01-07T04:12:21.183Z,38.40
2023-01-07T04:14:47.534Z,38.37
2023-01-07T04:17:13.928Z,38.43
2023-01-07T04:19:40.265Z,38.44
2023-01-07T04:22:06.643Z,38.51
2023-01-07T04:24:32.994Z,38.54
2023-01-07T04:26:59.373Z,38.53
2023-01-07T04:29:25.713Z,38.53
2023-01-07T04:31:52.129Z,38.55
2023-01-07T04:34:18.477Z,38.56
2023-01-07T04:36:44.926Z,38.61
2023-01-07T04:39:11.244Z,38.57
2023-01-07T04:41:37.648Z,38.56
2023-01-07T04:44:03.991Z,38.57
2023-01-07T04:46:30.415Z,38.59
2023-01-07T04:48:56.740Z,38.61
2023-01-07T04:51:23.135Z,38.55
2023-01-07T04:53:49.474Z,38.55
2023-01-07T04:56:15.903Z,38.64
2023-01-07T04:58:42.236Z,38.55
2023-01-07T05:01:08.703Z,38.67
2023-01-07T05:03:34.966Z,38.61
2023-01-07T05:06:01.369Z,38.54
2023-01-07T05:08:27.708Z,38.54
2023-01-07T05:10:54.128Z,38.58
2023-01-07T05:13:20.483Z,38.52
2023-01-07T05:15:46.905Z,38.52
2023-01-07T05:18:13.294Z,38.47
2023-01-07T05:20:39.715Z,38.53
2023-01-07T05:23:06.041Z,38.54
2023-01-07T05:25:32.431Z,38.53
2023-01-07T05:27:58.793Z,38.52
2023-01-07T05:30:25.195Z,38.49
2023-01-07T05:32:51.536Z,38.48
2023-01-07T05:35:17.948Z,38.52
2023-01-07T05:37:44.266Z,38.57
2023-01-07T05:40:10.711Z,38.56
2023-01-07T05:42:37.101Z,38.56
2023-01-07T05:45:03.465Z,38.61
2023-01-07T05:47:29.798Z,38.62
2023-01-07T05:49:56.195Z,38.63
2023-01-07T05:52:22.549Z,38.71
2023-01-07T05:54:48.934Z,38.64
2023-01-07T05:57:15.320Z,38.68
2023-01-07T05:59:41.710Z,38.67
2023-01-07T06:02:08.071Z,38.68
2023-01-07T06:04:34.503Z,38.67
2023-01-07T06:07:00.801Z,38.67
2023-01-07T06:09:27.206Z,38.54
2023-01-07T06:11:53.553Z,38.56
2023-01-07T06:14:19.954Z,38.43
2023-01-07T06:16:46.295Z,38.43
2023-01-07T06:19:12.684Z,38.36
2023-01-07T06:21:39.043Z,38.24
2023-01-07T06:24:05.427Z,38.12
2023-01-07T06:26:31.806Z,38.00
2023-01-07T06:28:58.194Z,37.98
2023-01-07T06:31:24.610Z,37.84
2023-01-07T06:33:50.942Z,37.74
2023-01-07T06:36:17.284Z,37.62
2023-01-07T06:38:43.679Z,37.57
2023-01-07T06:41:10.029Z,37.45
2023-01-07T06:43:36.488Z,37.37
2023-01-07T06:46:02.862Z,37.19
2023-01-07T06:48:29.241Z,37.15
2023-01-07T06:50:55.567Z,37.02
2023-01-07T06:53:21.960Z,36.85
2023-01-07T06:55:48.307Z,36.87
2023-01-07T06:58:14.752Z,36.73
2023-01-07T07:00:41.091Z,36.71
2023-01-07T07:03:07.520Z,36.64
2023-01-07T07:05:33.837Z,36.43
2023-01-07T07:08:00.179Z,36.44
2023-01-07T07:10:26.650Z,36.23
2023-01-07T07:12:52.968Z,36.22
2023-01-07T07:15:19.360Z,36.20
2023-01-07T07:17:45.705Z,36.07
2023-01-07T07:20:12.085Z,35.96
2023-01-07T07:22:38.431Z,35.85
2023-01-07T07:25:04.819Z,35.72
2023-01-07T07:27:31.176Z,35.59
2023-01-07T07:29:57.562Z,35.45
2023-01-07T07:32:23.920Z,35.34
2023-01-07T07:34:50.390Z,35.22
2023-01-07T07:37:16.728Z,35.14
2023-01-07T07:39:43.103Z,35.08
2023-01-07T07:42:09.458Z,34.96
2023-01-07T07:44:35.841Z,34.95
2023-01-07T07:47:02.211Z,34.86
2023-01-07T07:49:28.585Z,34.76
2023-01-07T07:51:54.942Z,34.69
2023-01-07T07:54:23.751Z,34.60
2023-01-07T07:56:47.680Z,34.60
2023-01-07T07:59:14.058Z,34.55
2023-01-07T08:01:40.546Z,34.40
2023-01-07T08:04:06.809Z,34.37
2023-01-07T08:06:33.161Z,34.28
2023-01-07T08:08:59.564Z,34.20
2023-01-07T08:11:25.914Z,34.16
2023-01-07T08:13:52.302Z,34.06
2023-01-07T08:16:18.817Z,33.94
2023-01-07T08:18:46.097Z,33.94
2023-01-07T08:21:12.449Z,33.88
2023-01-07T08:23:38.845Z,33.86
2023-01-07T08:26:05.183Z,33.78
2023-01-07T08:28:32.565Z,33.70
2023-01-07T08:30:58.002Z,33.58
2023-01-07T08:33:24.377Z,33.51
2023-01-07T08:35:50.725Z,33.53
2023-01-07T08:38:17.116Z,33.47
2023-01-07T08:40:43.474Z,33.37
2023-01-07T08:43:09.850Z,33.36
2023-01-07T08:45:36.217Z,33.31
2023-01-07T08:48:02.590Z,33.25
2023-01-07T08:50:28.942Z,33.21
2023-01-07T08:52:55.365Z,33.13
2023-01-07T08:55:21.713Z,33.11
2023-01-07T08:57:48.096Z,33.07
2023-01-07T09:00:15.814Z,32.99
2023-01-07T09:02:40.894Z,32.97
2023-01-07T09:05:07.199Z,32.90
2023-01-07T09:07:33.584Z,32.82
2023-01-07T09:09:59.946Z,32.80
2023-01-07T09:12:26.339Z,32.76
2023-01-07T09:14:52.685Z,32.75
2023-01-07T09:17:19.075Z,32.69
2023-01-07T09:19:45.427Z,32.67
2023-01-07T09:22:11.813Z,32.62
2023-01-07T09:24:38.161Z,32.58
2023-01-07T09:27:04.553Z,32.59
2023-01-07T09:29:30.937Z,32.49
2023-01-07T09:31:57.411Z,32.51
2023-01-07T09:34:23.709Z,32.46
2023-01-07T09:36:50.113Z,32.45
2023-01-07T09:39:16.445Z,32.42
2023-01-07T09:41:42.845Z,32.39
2023-01-07T09:44:09.192Z,32.36
2023-01-07T09:46:35.575Z,32.33
2023-01-07T09:49:01.921Z,32.34
2023-01-07T09:51:28.318Z,32.34
2023-01-07T09:53:54.665Z,32.21
2023-01-07T09:56:21.065Z,32.18
2023-01-07T09:58:47.437Z,32.24
2023-01-07T10:01:13.913Z,32.26
2023-01-07T10:03:40.223Z,32.16
2023-01-07T10:06:06.601Z,32.15
2023-01-07T10:08:32.942Z,32.07
2023-01-07T10:10:59.331Z,32.06
2023-01-07T10:13:25.681Z,32.06
2023-01-07T10:15:52.073Z,31.97
2023-01-07T10:18:18.421Z,31.98
2023-01-07T10:20:44.818Z,31.92
2023-01-07T10:23:11.154Z,31.86
2023-01-07T10:25:37.554Z,31.84
2023-01-07T10:28:03.897Z,31.86
2023-01-07T10:30:30.297Z,31.83
2023-01-07T10:32:56.674Z,31.78
2023-01-07T10:35:23.040Z,31.69
2023-01-07T10:37:49.390Z,31.72
2023-01-07T10:40:15.809Z,31.68
2023-01-07T10:42:42.175Z,31.64
2023-01-07T10:45:08.545Z,31.67
2023-01-07T10:47:34.888Z,31.67
2023-01-07T10:50:01.296Z,31.58
2023-01-07T10:52:27.629Z,31.54
2023-01-07T10:54:54.059Z,31.46
2023-01-07T10:57:20.396Z,31.39
2023-01-07T10:59:46.793Z,31.36
2023-01-07T11:02:13.346Z,31.28
2023-01-07T11:04:39.536Z,31.17
2023-01-07T11:07:05.896Z,31.06
2023-01-07T11:09:32.304Z,30.93
2023-01-07T11:11:58.646Z,30.81
2023-01-07T11:14:25.044Z,30.72
2023-01-07T11:16:51.446Z,30.63
2023-01-07T11:19:17.767Z,30.54
2023-01-07T11:21:44.826Z,30.43
2023-01-07T11:24:10.578Z,30.47
2023-01-07T11:26:36.926Z,30.43
2023-01-07T11:29:03.359Z,30.30
2023-01-07T11:31:29.731Z,30.19
2023-01-07T11:34:01.653Z,30.17
2023-01-07T11:36:22.476Z,30.07
2023-01-07T11:38:48.880Z,30.14
2023-01-07T11:41:15.210Z,30.03
2023-01-07T11:43:41.605Z,30.07
2023-01-07T11:46:19.105Z,30.02
2023-01-07T11:48:34.347Z,29.97
2023-01-07T11:51:00.735Z,29.98
2023-01-07T11:53:27.084Z,29.95
2023-01-07T11:55:53.453Z,30.10
2023-01-07T11:58:30.009Z,29.83
2023-01-07T12:00:46.196Z,29.87
2023-01-07T12:03:12.650Z,29.80
2023-01-07T12:05:38.952Z,29.72
2023-01-07T12:08:05.325Z,29.66
2023-01-07T12:10:31.690Z,29.58
2023-01-07T12:12:58.072Z,29.57
2023-01-07T12:15:24.412Z,29.52
2023-01-07T12:17:50.813Z,29.32
2023-01-07T12:20:17.140Z,29.28
2023-01-07T12:22:43.550Z,29.37
2023-01-07T12:25:09.917Z,29.37
2023-01-07T12:27:36.335Z,29.03
2023-01-07T12:30:02.669Z,29.03
2023-01-07T12:32:29.059Z,28.43
2023-01-07T12:34:55.390Z,28.87
2023-01-07T12:37:21.787Z,28.75
2023-01-07T12:39:48.136Z,28.77
2023-01-07T12:42:14.548Z,28.77
2023-01-07T12:44:40.883Z,28.42
2023-01-07T12:47:31.705Z,28.42
2023-01-07T12:49:33.615Z,28.41
2023-01-07T12:51:59.996Z,28.41
2023-01-07T12:54:26.342Z,28.65
2023-01-07T12:56:52.746Z,28.64
2023-01-07T12:59:46.064Z,28.59
2023-01-07T13:01:45.562Z,28.56
2023-01-07T13:04:11.837Z,28.59
2023-01-07T13:06:38.224Z,28.46
2023-01-07T13:09:04.579Z,28.37
2023-01-07T13:11:30.964Z,28.26
2023-01-07T13:13:57.305Z,28.20
2023-01-07T13:16:23.714Z,28.26
2023-01-07T13:18:50.047Z,28.19
2023-01-07T13:21:16.432Z,28.19
2023-01-07T13:23:42.773Z,28.03
2023-01-07T13:26:09.171Z,27.99
2023-01-07T13:28:35.521Z,27.92
2023-01-07T13:31:01.933Z,27.86
2023-01-07T13:33:28.254Z,27.88
2023-01-07T13:35:54.650Z,27.82
2023-01-07T13:38:20.995Z,27.79
2023-01-07T13:40:47.380Z,27.93
2023-01-07T13:43:13.756Z,27.70
2023-01-07T13:45:40.135Z,27.71
2023-01-07T13:48:06.499Z,27.72
2023-01-07T13:50:32.874Z,27.74
2023-01-07T13:52:59.226Z,27.66
2023-01-07T13:55:25.616Z,27.66
2023-01-07T13:57:51.956Z,27.82
2023-01-07T14:00:20.359Z,27.75
2023-01-07T14:02:44.698Z,27.82
2023-01-07T14:05:11.154Z,27.81
2023-01-07T14:07:37.481Z,27.86
2023-01-07T14:10:03.871Z,27.90
2023-01-07T14:12:30.203Z,27.92
2023-01-07T14:14:56.598Z,28.17
2023-01-07T14:17:22.938Z,28.17
2023-01-07T14:19:49.349Z,28.22
2023-01-07T14:22:15.678Z,28.40
2023-01-07T14:24:42.067Z,28.58
2023-01-07T14:27:08.420Z,28.58
2023-01-07T14:29:34.806Z,28.41
2023-01-07T14:32:01.187Z,28.27
2023-01-07T14:34:27.830Z,28.27
2023-01-07T14:36:54.210Z,28.57
2023-01-07T14:39:20.596Z,28.55
2023-01-07T14:41:46.942Z,28.48
2023-01-07T14:44:13.323Z,28.48
2023-01-07T14:46:39.723Z,28.52
2023-01-07T14:49:06.047Z,28.59
2023-01-07T14:51:32.375Z,28.60
2023-01-07T14:53:58.772Z,28.45
2023-01-07T14:56:25.133Z,28.51
2023-01-07T14:58:51.507Z,28.51
2023-01-07T15:01:18.054Z,28.61
2023-01-07T15:03:44.277Z,28.56
2023-01-07T15:06:10.633Z,28.56
2023-01-07T15:08:37.007Z,28.75
2023-01-07T15:11:03.386Z,28.77
2023-01-07T15:13:29.779Z,28.51
2023-01-07T15:15:56.203Z,29.23
2023-01-07T15:18:22.551Z,29.23
2023-01-07T15:20:48.875Z,29.13
2023-01-07T15:23:15.331Z,29.46
2023-01-07T15:25:41.701Z,29.46
2023-01-07T15:28:08.096Z,29.53
2023-01-07T15:30:34.417Z,29.53
2023-01-07T15:33:00.807Z,29.49
2023-01-07T15:35:27.229Z,29.49
2023-01-07T15:37:54.833Z,29.57
2023-01-07T15:40:19.965Z,29.68
2023-01-07T15:42:46.364Z,29.69
2023-01-07T15:45:12.756Z,29.77
2023-01-07T15:47:40.125Z,29.82
2023-01-07T15:50:05.484Z,29.93
2023-01-07T15:52:31.902Z,29.98
2023-01-07T15:54:58.252Z,30.05
2023-01-07T15:57:24.704Z,30.10
2023-01-07T15:59:51.059Z,30.16
2023-01-07T16:02:17.539Z,30.30
2023-01-07T16:04:43.948Z,30.40
2023-01-07T16:07:10.251Z,30.39
2023-01-07T16:09:36.592Z,30.50
2023-01-07T16:12:03.071Z,30.58
2023-01-07T16:14:29.503Z,30.63
2023-01-07T16:16:55.949Z,30.70
2023-01-07T16:19:22.309Z,30.77
2023-01-07T16:21:48.737Z,30.82
2023-01-07T16:24:15.089Z,30.87
2023-01-07T16:26:41.503Z,30.95
2023-01-07T16:29:07.846Z,30.98
2023-01-07T16:31:34.311Z,30.97
2023-01-07T16:34:00.584Z,31.08
2023-01-07T16:36:27.007Z,31.17
2023-01-07T16:38:53.369Z,31.24
2023-01-07T16:41:19.744Z,31.33
2023-01-07T16:43:46.106Z,31.36
2023-01-07T16:46:12.500Z,31.43
2023-01-07T16:48:38.854Z,31.42
2023-01-07T16:51:05.246Z,31.43
2023-01-07T16:53:31.587Z,31.45
2023-01-07T16:55:57.981Z,31.40
2023-01-07T16:58:24.325Z,31.55
2023-01-07T17:00:50.877Z,31.59
2023-01-07T17:03:17.109Z,31.52
2023-01-07T17:05:43.434Z,31.52
2023-01-07T17:08:09.777Z,31.55
2023-01-07T17:10:36.196Z,31.62
2023-01-07T17:13:02.543Z,31.73
2023-01-07T17:15:28.937Z,31.82
2023-01-07T17:17:55.294Z,31.94
2023-01-07T17:20:21.734Z,32.04
2023-01-07T17:22:48.088Z,32.06
2023-01-07T17:25:14.526Z,32.12
2023-01-07T17:27:40.868Z,32.17
2023-01-07T17:30:07.248Z,32.10
2023-01-07T17:35:15.922Z,32.20
2023-01-07T17:37:42.276Z,32.25
2023-01-07T17:40:08.660Z,32.38
2023-01-07T17:42:34.996Z,32.44
2023-01-07T17:45:01.396Z,32.45
2023-01-07T17:47:27.746Z,32.43
2023-01-07T17:49:54.134Z,32.49
2023-01-07T17:52:20.498Z,32.54
2023-01-07T17:54:46.874Z,32.58
2023-01-07T17:57:13.226Z,32.67
2023-01-07T17:59:39.615Z,32.75
2023-01-07T18:02:06.193Z,32.73
2023-01-07T18:04:32.416Z,32.72
2023-01-07T18:06:58.775Z,32.78
2023-01-07T18:09:25.173Z,32.79
2023-01-07T18:11:51.537Z,32.86
2023-01-07T18:14:17.933Z,32.91
2023-01-07T18:16:44.344Z,32.99
2023-01-07T18:19:10.661Z,33.03
2023-01-07T18:21:37.003Z,33.08
2023-01-07T18:24:03.406Z,33.07
2023-01-07T18:26:29.756Z,33.15
2023-01-07T18:28:56.223Z,33.25
2023-01-07T18:31:22.693Z,33.26
2023-01-07T18:33:48.992Z,33.36
2023-01-07T18:36:15.343Z,33.36
2023-01-07T18:38:41.731Z,33.40
2023-01-07T18:41:08.089Z,33.45
2023-01-07T18:43:34.472Z,33.42
2023-01-07T18:46:00.861Z,33.45
2023-01-07T18:48:27.222Z,33.55
2023-01-07T18:50:53.575Z,33.58
2023-01-07T18:53:19.982Z,33.64
2023-01-07T18:55:46.305Z,33.59
2023-01-07T18:58:12.696Z,33.52
2023-01-07T19:00:39.085Z,33.68
2023-01-07T19:03:05.434Z,33.67
2023-01-07T19:05:31.803Z,33.81
2023-01-07T19:07:58.182Z,33.85
2023-01-07T19:10:24.560Z,33.84
2023-01-07T19:12:50.949Z,33.88
2023-01-07T19:15:17.325Z,33.91
2023-01-07T19:17:43.721Z,34.01
2023-01-07T19:20:10.073Z,34.01
2023-01-07T19:22:36.467Z,34.04
2023-01-07T19:25:02.807Z,34.08
2023-01-07T19:27:29.228Z,34.08
2023-01-07T19:29:55.570Z,34.08
2023-01-07T19:32:21.952Z,34.12
2023-01-07T19:34:48.306Z,34.19
2023-01-07T19:37:14.693Z,34.16
2023-01-07T19:39:42.201Z,34.21
2023-01-07T19:42:07.430Z,34.28
2023-01-07T19:44:33.782Z,34.31
2023-01-07T19:47:00.172Z,34.31
2023-01-07T19:49:26.593Z,34.28
2023-01-07T19:51:52.979Z,34.36
2023-01-07T19:54:19.323Z,34.37
2023-01-07T19:56:45.718Z,34.43
2023-01-07T19:59:12.071Z,34.43
2023-01-07T20:01:38.540Z,34.48
2023-01-07T20:04:04.857Z,34.51
2023-01-07T20:06:31.257Z,34.47
2023-01-07T20:08:57.600Z,34.49
2023-01-07T20:11:23.998Z,34.51
2023-01-07T20:13:50.334Z,34.54
2023-01-07T20:16:16.825Z,34.59
2023-01-07T20:18:43.100Z,34.63
2023-01-07T20:21:09.493Z,34.65
2023-01-07T20:23:35.840Z,34.70
2023-01-07T20:26:02.231Z,34.71
2023-01-07T20:28:28.574Z,34.73
2023-01-07T20:30:54.972Z,34.77
2023-01-07T20:33:21.324Z,34.71
2023-01-07T20:35:47.720Z,34.71
2023-01-07T20:38:14.058Z,34.81
2023-01-07T20:40:40.450Z,34.85
2023-01-07T20:43:06.795Z,34.81
2023-01-07T20:45:33.229Z,34.84
2023-01-07T20:47:59.530Z,34.86
2023-01-07T20:50:26.030Z,34.80
2023-01-07T20:52:52.373Z,34.88
2023-01-07T20:55:18.764Z,34.86
2023-01-07T20:57:45.105Z,34.98
2023-01-07T21:00:11.533Z,34.93
2023-01-07T21:02:38.071Z,35.07
2023-01-07T21:05:04.266Z,34.96
2023-01-07T21:07:30.615Z,34.95
2023-01-07T21:09:57.009Z,35.07
2023-01-07T21:12:23.356Z,35.01
2023-01-07T21:14:49.754Z,34.99
2023-01-07T21:17:16.129Z,35.02
2023-01-07T21:19:42.498Z,35.07
2023-01-07T21:22:08.841Z,35.12
2023-01-07T21:24:35.224Z,35.15
2023-01-07T21:27:02.832Z,35.25
2023-01-07T21:29:29.165Z,35.26
2023-01-07T21:31:54.373Z,35.20
2023-01-07T21:34:20.709Z,35.22
2023-01-07T21:36:47.072Z,35.29
2023-01-07T21:39:13.479Z,35.29
2023-01-07T21:41:39.824Z,35.36
2023-01-07T21:44:06.215Z,35.34
2023-01-07T21:46:32.559Z,35.38
2023-01-07T21:48:58.942Z,35.40
2023-01-07T21:51:25.315Z,35.40
2023-01-07T21:53:51.676Z,35.47
2023-01-07T21:56:18.057Z,35.51
2023-01-07T21:58:44.450Z,35.53
2023-01-07T22:01:10.883Z,35.53
2023-01-07T22:03:37.254Z,35.59
2023-01-07T22:06:03.533Z,35.56
2023-01-07T22:08:29.931Z,35.61
2023-01-07T22:10:56.336Z,35.62
2023-01-07T22:13:22.723Z,35.65
2023-01-07T22:15:49.075Z,35.66
2023-01-07T22:18:15.476Z,35.73
2023-01-07T22:20:41.831Z,35.69
2023-01-07T22:23:08.242Z,35.68
2023-01-07T22:25:34.579Z,35.71
2023-01-07T22:28:01.008Z,35.70
2023-01-07T22:30:27.354Z,35.74
2023-01-07T22:32:53.749Z,35.74
2023-01-07T22:35:20.090Z,35.78
2023-01-07T22:37:46.491Z,35.77
2023-01-07T22:40:12.853Z,35.78
2023-01-07T22:42:39.242Z,35.81
2023-01-07T22:45:05.591Z,35.83
2023-01-07T22:47:32.026Z,35.86
2023-01-07T22:49:58.372Z,35.89
2023-01-07T22:52:24.763Z,35.91
2023-01-07T22:54:51.113Z,35.94
2023-01-07T22:57:17.500Z,35.94
2023-01-07T22:59:46.253Z,35.98
2023-01-07T23:02:10.243Z,35.98
2023-01-07T23:04:36.594Z,36.04
2023-01-07T23:07:02.988Z,36.08
2023-01-07T23:09:29.346Z,36.15
2023-01-07T23:11:55.735Z,36.14
2023-01-07T23:14:22.109Z,36.14
2023-01-07T23:16:48.546Z,36.21
2023-01-07T23:19:14.861Z,36.24
2023-01-07T23:21:41.273Z,36.28
2023-01-07T23:24:08.824Z,36.29
2023-01-07T23:26:33.990Z,36.34
2023-01-07T23:29:00.337Z,36.34
2023-01-07T23:31:26.761Z,36.38
2023-01-07T23:33:53.081Z,36.44
2023-01-07T23:36:19.619Z,36.44
2023-01-07T23:38:45.957Z,36.47
2023-01-07T23:41:12.348Z,36.54
2023-01-07T23:43:40.639Z,36.54
2023-01-07T23:46:05.214Z,36.57
2023-01-07T23:48:31.503Z,36.59
2023-01-07T23:50:57.999Z,36.64
2023-01-07T23:53:24.352Z,36.72
2023-01-07T23:55:50.812Z,36.70
2023-01-07T23:58:17.179Z,36.75
